• Join FlightAware (Why Join?)
  • Login
  • US Flag 
Gobble Gobble! 
06:33PM EST


 

Airport Tracker/Info


-or-


 

Live Flight TrackerFlight Track Log ✈ SWA1628 ✈ 21-Aug-2013 ✈ KSDF - KLAS

Flight Track Log - Related Links

Times and Time Zones

All times are in EDT time to prevent confusion due to time zone crossing. See the SWA1628 flight status page for this flight to view local times or setup timezone preferences in your user account.

Time Position Orientation Groundspeed Altitude Reporting Facility
EDT Latitude Longitude Course Direction KTS MPH feet Rate Location/Type
01:23PM 38.0775 -85.8144 263° West 265 305 5,100  Level Indianapolis Center
01:25PM 38.0744 -85.9078 268° West 266 306 9,000 3,300 Climbing Indianapolis Center
01:26PM 38.0769 -86.0081 272° West 280 322 11,900 2,880 Climbing Indianapolis Center
01:27PM 38.0958 -86.1508 280° West 342 394 15,000 2,820 Climbing Indianapolis Center
01:28PM 38.0375 -87.0875 284° West  Level FlightAware Approximate
01:28PM 38.1117 -86.2781 279° West 361 415 17,800  Level Indianapolis Center
01:29PM 38.1278 -86.4125 279° West 380 437 20,400 2,580 Climbing Indianapolis Center
01:30PM 38.1433 -86.5486 278° West 386 444 23,200 2,460 Climbing Indianapolis Center
01:31PM 38.1600 -86.6875 279° West 393 452 25,600 1,980 Climbing Indianapolis Center
01:32PM 38.1758 -86.8303 278° West 403 464 27,300 1,620 Climbing Indianapolis Center
01:33PM 38.1922 -86.9803 278° West 419 482 29,000 1,260 Climbing Indianapolis Center
01:34PM 38.2100 -87.1403 278° West 438 504 30,000 480 Climbing Indianapolis Center
01:35PM 38.2283 -87.3017 278° West 448 516 30,100 780 Climbing Indianapolis Center
01:36PM 38.2467 -87.4581 279° West 445 512 31,700 1,860 Climbing Indianapolis Center
01:37PM 38.2633 -87.6144 278° West 443 510 34,000 1,980 Climbing Indianapolis Center
01:38PM 38.2794 -87.7636 278° West 429 494 35,900 960 Climbing Indianapolis Center
01:39PM 38.2992 -87.9433 278° West 427 491 36,000  Climbing Indianapolis Center
01:40PM 38.3147 -88.0956 277° West 431 496 36,000  Level Indianapolis Center
01:41PM 38.3275 -88.2194 278° West 434 499 36,000 420 Level Kansas City Center
01:42PM 38.3472 -88.4053 278° West 439 505 36,900 480 Climbing Kansas City Center
01:43PM 38.3628 -88.5606 277° West 440 506 37,000  Climbing Kansas City Center
01:44PM 38.3783 -88.7242 277° West 442 509 37,000  Level Kansas City Center
01:45PM 38.3989 -88.8767 280° West 438 504 37,000  Level Kansas City Center
01:46PM 38.4297 -89.0381 284° West 436 502 37,000  Level Kansas City Center
01:47PM 38.4567 -89.1889 283° West 438 504 37,000  Level Kansas City Center
01:48PM 38.4858 -89.3528 283° West 440 506 37,000  Level Kansas City Center
01:49PM 38.5114 -89.5044 282° West 440 506 37,000  Level Kansas City Center
01:50PM 38.5378 -89.6558 283° West 438 504 37,000 480 Level Kansas City Center
01:51PM 38.5611 -89.7925 282° West 441 507 38,000 480 Climbing Kansas City Center
01:52PM 38.5911 -89.9706 282° West 432 497 38,000  Level Kansas City Center
01:53PM 38.6156 -90.1197 282° West 429 494 38,000  Level Kansas City Center
01:54PM 38.6392 -90.2686 282° West 428 493 38,000  Level Kansas City Center
01:55PM 38.6658 -90.4378 281° West 428 493 38,000  Level Kansas City Center
01:56PM 38.6922 -90.5872 283° West 430 495 38,000  Level Kansas City Center
01:57PM 38.7153 -90.7339 281° West 437 503 38,000  Level Kansas City Center
01:59PM 38.7397 -90.8867 282° West 439 505 38,000  Level Kansas City Center
02:00PM 38.7644 -91.0350 282° West 433 498 38,000  Level Kansas City Center
02:01PM 38.7942 -91.2186 282° West 438 504 38,000  Level Kansas City Center
02:02PM 38.8181 -91.3717 281° West 439 505 38,000  Level Kansas City Center
02:03PM 38.8414 -91.5253 281° West 440 506 38,000  Level Kansas City Center
02:04PM 38.8642 -91.6786 281° West 440 506 38,000  Level Kansas City Center
02:05PM 38.8883 -91.8408 281° West 442 509 38,000  Level Kansas City Center
02:06PM 38.9119 -91.9936 281° West 440 506 38,000  Level Kansas City Center
02:07PM 38.9342 -92.1467 281° West 439 505 38,000  Level Kansas City Center
02:08PM 38.9606 -92.3319 280° West 440 506 38,000  Level Kansas City Center
02:09PM 38.9831 -92.4825 281° West 436 502 38,000  Level Kansas City Center
02:10PM 39.0053 -92.6347 281° West 434 499 38,000  Level Kansas City Center
02:11PM 39.0264 -92.7936 280° West 439 505 38,000  Level Kansas City Center
02:12PM 39.0264 -92.9475 270° West 435 501 38,000  Level Kansas City Center
02:13PM 39.0236 -93.1092 269° West 443 510 38,000  Level Kansas City Center
02:14PM 39.0225 -93.2667 270° West 445 512 38,000  Level Kansas City Center
02:15PM 39.0203 -93.4397 269° West 445 512 38,000  Level Kansas City Center
02:16PM 39.0183 -93.6142 269° West 439 505 38,000  Level Kansas City Center
02:17PM 39.0158 -93.7636 269° West 438 504 38,000  Level Kansas City Center
02:18PM 39.0139 -93.9378 269° West 436 502 38,000  Level Kansas City Center
02:19PM 39.0111 -94.0867 269° West 435 501 38,000 240 Level Kansas City Center
02:20PM 39.0081 -94.2614 269° West 438 504 38,500 720 Climbing Kansas City Center
02:21PM 39.0050 -94.4106 269° West 437 503 39,500 720 Climbing Kansas City Center
02:22PM 39.0011 -94.5853 268° West 436 502 40,000 240 Climbing Kansas City Center
02:23PM 38.9972 -94.7358 268° West 439 505 40,000  Level Kansas City Center
02:24PM 38.9942 -94.8897 269° West 440 506 40,000  Level Kansas City Center
02:25PM 38.9903 -95.0619 268° West 436 502 40,000  Level Kansas City Center
02:26PM 38.9856 -95.2111 268° West 433 498 40,000  Level Kansas City Center
02:27PM 38.9814 -95.3861 268° West 433 498 40,000  Level Kansas City Center
02:28PM 38.9778 -95.5333 268° West 429 494 40,000  Level Kansas City Center
02:29PM 38.9733 -95.6831 268° West 434 499 40,000  Level Kansas City Center
02:31PM 38.9686 -95.8550 268° West 430 495 40,000  Level Kansas City Center
02:32PM 38.9628 -96.0033 267° West 433 498 40,000  Level Kansas City Center
02:33PM 38.9572 -96.1789 268° West 438 504 40,000  Level Kansas City Center
02:34PM 38.9525 -96.3300 268° West 441 507 40,000  Level Kansas City Center
02:35PM 38.9456 -96.4808 267° West 440 506 40,000  Level Kansas City Center
02:36PM 38.9394 -96.6381 267° West 441 507 40,000  Level Kansas City Center
02:37PM 38.9325 -96.8286 267° West 445 512 40,000  Level Kansas City Center
02:38PM 38.9250 -96.9911 267° West 453 521 40,000  Level Kansas City Center
02:39PM 38.9189 -97.1472 267° West 442 509 40,000  Level Kansas City Center
02:40PM 38.9128 -97.3039 267° West 441 507 40,000  Level Kansas City Center
02:41PM 38.9058 -97.4594 267° West 439 505 40,000  Level Kansas City Center
02:42PM 38.8986 -97.6347 267° West 430 495 40,000  Level Kansas City Center
02:43PM 38.8906 -97.7828 266° West 431 496 40,000  Level Kansas City Center
02:44PM 38.8817 -97.9517 266° West 437 503 40,000  Level Kansas City Center
02:45PM 38.8742 -98.1050 266° West 434 499 40,000  Level Kansas City Center
02:46PM 38.8669 -98.2569 267° West 430 495 40,000  Level Kansas City Center
02:47PM 38.8589 -98.4103 266° West 433 498 40,000  Level Kansas City Center
02:48PM 38.8503 -98.5617 266° West 429 494 40,000  Level Kansas City Center
02:49PM 38.8397 -98.7442 266° West 430 495 40,000  Level Kansas City Center
02:50PM 38.8319 -98.8961 266° West 429 494 40,000  Level Kansas City Center
02:51PM 38.8228 -99.0489 266° West 430 495 40,000  Level Kansas City Center
02:52PM 38.8142 -99.2025 266° West 433 498 40,000  Level Kansas City Center
02:53PM 38.8053 -99.3558 266° West 433 498 40,000  Level Kansas City Center
02:54PM 38.7961 -99.5111 266° West 436 502 40,000  Level Kansas City Center
02:55PM 38.7844 -99.6817 265° West 438 504 40,000  Level Kansas City Center
02:56PM 38.7731 -99.8542 265° West 437 503 40,000  Level Kansas City Center
02:57PM 38.7625 -100.0028 265° West 437 503 40,000  Level Kansas City Center
02:58PM 38.7508 -100.1761 265° West 439 505 40,000  Level Kansas City Center
02:59PM 38.7406 -100.3231 265° West 437 503 40,000  Level Kansas City Center
03:01PM 38.7258 -100.5161 264° West 432 497 40,000  Level Denver Center
03:02PM 38.7136 -100.6856 265° West 431 496 40,000  Level Denver Center
03:03PM 38.7025 -100.8319 264° West 433 498 40,000  Level Denver Center
03:04PM 38.6889 -101.0044 264° West 431 496 40,000  Level Denver Center
03:05PM 38.6747 -101.1997 265° West 431 496 40,000  Level Denver Center
03:06PM 38.6639 -101.3414 264° West 432 497 40,000  Level Denver Center
03:07PM 38.6497 -101.5114 264° West 432 497 40,000  Level Denver Center
03:08PM 38.6378 -101.6569 264° West 432 497 40,000  Level Denver Center
03:09PM 38.6244 -101.8264 264° West 430 495 40,000  Level Denver Center
03:10PM 38.6117 -101.9717 264° West 430 495 40,000  Level Denver Center
03:11PM 38.5967 -102.1408 264° West 431 496 40,000  Level Denver Center
03:12PM 38.5844 -102.2842 264° West 426 490 40,000  Level Denver Center
03:13PM 38.5714 -102.4283 263° West 428 493 40,000  Level Denver Center
03:14PM 38.5564 -102.5992 264° West 431 496 40,000  Level Denver Center
03:15PM 38.5436 -102.7425 264° West 430 495 40,000  Level Denver Center
03:16PM 38.5281 -102.9119 263° West 432 497 40,000  Level Denver Center
03:17PM 38.5142 -103.0575 263° West 432 497 40,000  Level Denver Center
03:18PM 38.4969 -103.2303 263° West 432 497 40,000  Level Denver Center
03:20PM 38.4839 -103.3744 263° West 436 502 40,000  Level Denver Center
03:21PM 38.4664 -103.5475 263° West 435 501 40,000  Level Denver Center
03:22PM 38.4336 -103.6889 254° West 436 502 40,000  Level Denver Center
03:23PM 38.3958 -103.8553 254° West 437 503 40,000  Level Denver Center
03:24PM 38.3633 -103.9964 254° West 435 501 40,000  Level Denver Center
03:25PM 38.3322 -104.1372 254° West 435 501 40,000  Level Denver Center
03:26PM 38.2964 -104.3031 255° West 435 501 40,000  Level Denver Center
03:27PM 38.2608 -104.4678 255° West 434 499 40,000  Level Denver Center
03:28PM 38.2300 -104.6103 255° West 436 502 40,000  Level Denver Center
03:29PM 38.1953 -104.7753 255° West 436 502 40,000  Level Denver Center
03:30PM 38.1639 -104.9158 254° West 434 499 40,000  Level Denver Center
03:31PM 38.1356 -105.0572 256° West 432 497 40,000  Level Denver Center
03:32PM 38.1011 -105.2233 255° West 436 502 40,000  Level Denver Center
03:33PM 38.0719 -105.3644 255° West 434 499 40,000  Level Denver Center
03:34PM 38.0386 -105.5281 256° West 431 496 40,000  Level Denver Center
03:35PM 38.0092 -105.6658 255° West 427 491 40,000  Level Denver Center
03:36PM 37.9572 -105.8206 247° West 427 491 40,000  Level Denver Center
03:37PM 37.9119 -105.9542 247° West 430 495 40,000  Level Denver Center
03:38PM 37.8603 -106.1094 247° West 429 494 40,000  Level Denver Center
03:39PM 37.8125 -106.2542 247° West 433 498 40,000  Level Denver Center
03:40PM 37.7672 -106.3886 247° West 435 501 40,000  Level Denver Center
03:41PM 37.6967 -106.5319 238° Southwest 433 498 40,000  Level Denver Center
03:42PM 37.6058 -106.6258 219° Southwest 435 501 40,000  Level Denver Center
03:43PM 37.5025 -106.7356 220° Southwest 434 499 40,000  Level Denver Center
03:44PM 37.4089 -106.8211 216° Southwest 433 498 40,000  Level Denver Center
03:45PM 37.3472 -106.9644 242° Southwest 425 489 40,000  Level Denver Center
03:46PM 37.3414 -107.1092 267° West 431 496 40,000  Level Denver Center
03:47PM 37.3319 -107.2506 265° West 427 491 40,000  Level Denver Center
03:48PM 37.3206 -107.4153 265° West 426 490 40,000  Level Denver Center
03:49PM 37.3117 -107.5575 266° West 426 490 40,000  Level Denver Center
03:50PM 37.3008 -107.7239 265° West 428 493 40,000  Level Denver Center
03:52PM 37.2906 -107.8661 265° West 427 491 40,000  Level Denver Center
03:53PM 37.2797 -108.0344 265° West 431 496 40,000  Level Denver Center
03:54PM 37.2694 -108.1778 265° West 432 497 40,000  Level Denver Center
03:55PM 37.2569 -108.3472 265° West 435 501 40,000  Level Denver Center
03:56PM 37.2461 -108.4897 265° West 432 497 40,000  Level Denver Center
03:57PM 37.2317 -108.6819 265° West 434 499 40,000  Level Denver Center
03:58PM 37.2206 -108.8222 264° West 429 494 40,000  Level Denver Center
03:59PM 37.2081 -108.9889 265° West 430 495 40,000  Level Denver Center
04:00PM 37.1961 -109.1314 264° West 430 495 40,000  Level Denver Center
04:01PM 37.1833 -109.2967 265° West 429 494 40,000  Level Denver Center
04:02PM 37.1717 -109.4392 264° West 429 494 40,000  Level Denver Center
04:03PM 37.1542 -109.6336 264° West 439 505 40,000 -60 Level Denver Center
04:04PM 37.1422 -109.7742 264° West 431 496 39,900 -480 Descending Denver Center
04:05PM 37.1306 -109.9147 264° West 427 491 39,100 -840 Descending Denver Center
04:06PM 37.1175 -110.0786 264° West 425 489 38,300 -780 Descending Denver Center
04:07PM 37.1058 -110.2306 265° West 431 496 37,500 -840 Descending Denver Center
04:08PM 37.1053 -110.4117 270° West 435 501 36,600 -840 Descending Denver Center
04:09PM 37.1022 -110.5608 269° West 431 496 35,800 -780 Descending Denver Center
04:11PM 37.1000 -110.7133 269° West 436 502 35,000 -780 Descending Denver Center
04:12PM 37.0992 -110.8631 270° West 433 498 34,200 -780 Descending Denver Center
04:13PM 37.0892 -111.0139 265° West 432 497 33,400 -780 Descending Denver Center
04:14PM 37.0647 -111.1656 259° West 439 505 32,700 -720 Descending Denver Center
04:15PM 37.0439 -111.3164 260° West 440 506 32,000 -360 Descending Denver Center
04:16PM 37.0233 -111.5000 262° West 444 511 32,000  Level Denver Center
04:17PM 37.0161 -111.6853 267° West 445 512 32,000  Level Denver Center
04:18PM 37.0125 -111.8058 268° West 440 506 32,000 -60 Level Los Angeles Center
04:19PM 36.9914 -111.9875 262° West 439 505 31,900 -480 Descending Los Angeles Center
04:20PM 36.9633 -112.1339 257° West 434 499 31,100 -780 Descending Los Angeles Center
04:21PM 36.9372 -112.2700 257° West 408 470 30,300 -780 Descending Los Angeles Center
04:22PM 36.9128 -112.4022 257° West 393 452 29,500 -840 Descending Los Angeles Center
04:23PM 36.8864 -112.5300 256° West 382 440 28,600 -840 Descending Los Angeles Center
04:24PM 36.8622 -112.6608 257° West 384 442 27,800 -780 Descending Los Angeles Center
04:25PM 36.8364 -112.7900 256° West 384 442 27,000 -840 Descending Los Angeles Center
04:26PM 36.8064 -112.9411 256° West 376 433 26,100 -900 Descending Los Angeles Center
04:27PM 36.7822 -113.0625 256° West 363 418 25,200 -840 Descending Los Angeles Center
04:28PM 36.7697 -113.1856 263° West 358 412 24,400 -780 Descending Los Angeles Center
04:29PM 36.7606 -113.3100 265° West 359 413 23,600 -780 Descending Los Angeles Center
04:30PM 36.7403 -113.4372 259° West 377 434 22,800 -900 Descending Los Angeles Center
04:31PM 36.7008 -113.5642 249° West 392 451 21,800 -1,080 Descending Los Angeles Center
04:32PM 36.6517 -113.7117 247° West 385 443 20,600 -1,080 Descending Los Angeles Center
04:33PM 36.6122 -113.8325 248° West 379 436 19,600 -1,020 Descending Los Angeles Center
04:34PM 36.5719 -113.9503 247° West 373 429 18,600 -960 Descending Los Angeles Center
04:35PM 36.5333 -114.0669 248° West 368 423 17,600 -1,080 Descending Los Angeles Center
04:36PM 36.4925 -114.1883 247° West 361 415 16,400 -1,620 Descending Los Angeles Center
04:37PM 36.4636 -114.2875 250° West 361 415 14,700 -2,100 Descending Los Angeles Center
04:38PM 36.4267 -114.3939 247° West 344 396 12,700 -1,320 Descending Los Angeles Center
04:39PM 36.3664 -114.4922 233° Southwest 317 365 12,000 -480 Descending Los Angeles Center
04:41PM 36.2850 -114.5117 191° South 298 343 11,600 -840 Descending Los Angeles Center
04:41PM 36.2139 -114.5358 195° South 294 338 10,400 -1,500 Descending Los Angeles Center
04:42PM 36.1347 -114.5600 194° South 293 337 9,100 -900 Descending Los Angeles Center
04:43PM 36.0853 -114.6300 229° Southwest 267 307 8,600 -600 Descending Los Angeles Center
04:44PM 36.0758 -114.7131 262° West 255 293 8,000 -780 Descending Los Angeles Center
04:45PM 36.0747 -114.7961 269° West 246 283 7,100 -540 Descending Los Angeles Center
04:46PM 36.0739 -114.8708 269° West 214 246 7,000 -780 Descending Los Angeles Center
04:47PM 36.0733 -114.9481 270° West 195 224 5,500 -1,500 Descending Los Angeles Center
04:48PM 36.0739 -115.0092 271° West 192 221 4,000 -1,320 Descending Los Angeles Center
04:49PM 36.0736 -115.0678 270° West 174 200 3,000 -900 Descending Los Angeles Center
04:50PM 36.0733 -115.0886 269° West 176 203 2,700 -660 Descending Los Angeles Center
04:51PM 36.0739 -115.1358 271° West 155 178 2,000 -720 Descending Los Angeles Center
04:53PM 36.0667 -115.1500 219° Southwest  Level FlightAware Approximate